sensor_id;sensor_type;location;lat;lon;timestamp;temperature;humidity
7004;DHT22;3542;48.812;9.146;2022-12-24T00:02:07;11.10;99.90
7004;DHT22;3542;48.812;9.146;2022-12-24T00:04:33;11.10;99.90
7004;DHT22;3542;48.812;9.146;2022-12-24T00:06:58;11.20;99.90
7004;DHT22;3542;48.812;9.146;2022-12-24T00:09:24;11.10;99.90
7004;DHT22;3542;48.812;9.146;2022-12-24T00:11:49;11.10;99.90
7004;DHT22;3542;48.812;9.146;2022-12-24T00:14:14;11.10;99.90
7004;DHT22;3542;48.812;9.146;2022-12-24T00:16:40;11.10;99.90
7004;DHT22;3542;48.812;9.146;2022-12-24T00:19:05;11.10;99.90
7004;DHT22;3542;48.812;9.146;2022-12-24T00:21:31;11.10;99.90
7004;DHT22;3542;48.812;9.146;2022-12-24T00:23:56;11.10;99.90
7004;DHT22;3542;48.812;9.146;2022-12-24T00:26:22;11.10;99.90
7004;DHT22;3542;48.812;9.146;2022-12-24T00:28:47;11.10;99.90
7004;DHT22;3542;48.812;9.146;2022-12-24T00:31:16;11.20;99.90
7004;DHT22;3542;48.812;9.146;2022-12-24T00:33:42;11.20;99.90
7004;DHT22;3542;48.812;9.146;2022-12-24T00:36:08;11.30;99.90
7004;DHT22;3542;48.812;9.146;2022-12-24T00:38:34;11.30;99.90
7004;DHT22;3542;48.812;9.146;2022-12-24T00:41:01;11.30;99.90
7004;DHT22;3542;48.812;9.146;2022-12-24T00:43:28;11.30;99.90
7004;DHT22;3542;48.812;9.146;2022-12-24T00:45:54;11.30;99.90
7004;DHT22;3542;48.812;9.146;2022-12-24T00:48:19;11.30;99.90
7004;DHT22;3542;48.812;9.146;2022-12-24T00:50:45;11.20;99.90
7004;DHT22;3542;48.812;9.146;2022-12-24T00:53:11;11.10;99.90
7004;DHT22;3542;48.812;9.146;2022-12-24T00:55:36;11.10;99.90
7004;DHT22;3542;48.812;9.146;2022-12-24T00:58:02;11.10;99.90
7004;DHT22;3542;48.812;9.146;2022-12-24T01:00:27;11.00;99.90
7004;DHT22;3542;48.812;9.146;2022-12-24T01:02:53;11.00;99.90
7004;DHT22;3542;48.812;9.146;2022-12-24T01:05:18;11.00;99.90
7004;DHT22;3542;48.812;9.146;2022-12-24T01:07:45;11.00;99.90
7004;DHT22;3542;48.812;9.146;2022-12-24T01:10:17;11.00;99.90
7004;DHT22;3542;48.812;9.146;2022-12-24T01:12:43;11.00;99.90
7004;DHT22;3542;48.812;9.146;2022-12-24T01:15:10;11.00;99.90
7004;DHT22;3542;48.812;9.146;2022-12-24T01:17:36;10.90;99.90
7004;DHT22;3542;48.812;9.146;2022-12-24T01:20:03;11.10;99.90
7004;DHT22;3542;48.812;9.146;2022-12-24T01:22:29;11.10;99.90
7004;DHT22;3542;48.812;9.146;2022-12-24T01:24:54;11.00;99.90
7004;DHT22;3542;48.812;9.146;2022-12-24T01:27:20;11.00;99.90
7004;DHT22;3542;48.812;9.146;2022-12-24T01:29:46;11.00;99.90
7004;DHT22;3542;48.812;9.146;2022-12-24T01:32:11;11.00;99.90
7004;DHT22;3542;48.812;9.146;2022-12-24T01:34:37;11.00;99.90
7004;DHT22;3542;48.812;9.146;2022-12-24T01:37:02;10.90;99.90
7004;DHT22;3542;48.812;9.146;2022-12-24T01:39:28;10.90;99.90
7004;DHT22;3542;48.812;9.146;2022-12-24T01:41:53;10.90;99.90
7004;DHT22;3542;48.812;9.146;2022-12-24T01:44:40;10.70;99.90
7004;DHT22;3542;48.812;9.146;2022-12-24T01:47:26;10.60;99.90
7004;DHT22;3542;48.812;9.146;2022-12-24T01:49:59;10.40;99.90
7004;DHT22;3542;48.812;9.146;2022-12-24T01:52:35;10.30;99.90
7004;DHT22;3542;48.812;9.146;2022-12-24T01:55:05;10.20;99.90
7004;DHT22;3542;48.812;9.146;2022-12-24T01:57:54;10.20;99.90
7004;DHT22;3542;48.812;9.146;2022-12-24T03:31:00;8.60;99.90
7004;DHT22;3542;48.812;9.146;2022-12-24T03:33:27;8.70;99.90
7004;DHT22;3542;48.812;9.146;2022-12-24T03:35:52;8.60;99.90
7004;DHT22;3542;48.812;9.146;2022-12-24T03:38:19;8.60;99.90
7004;DHT22;3542;48.812;9.146;2022-12-24T03:40:45;8.60;99.90
7004;DHT22;3542;48.812;9.146;2022-12-24T03:43:10;8.60;99.90
7004;DHT22;3542;48.812;9.146;2022-12-24T03:45:36;8.60;99.90
7004;DHT22;3542;48.812;9.146;2022-12-24T03:48:01;8.60;99.90
7004;DHT22;3542;48.812;9.146;2022-12-24T03:50:27;8.60;99.90
7004;DHT22;3542;48.812;9.146;2022-12-24T03:52:54;8.60;99.90
7004;DHT22;3542;48.812;9.146;2022-12-24T03:55:19;8.60;99.90
7004;DHT22;3542;48.812;9.146;2022-12-24T03:57:45;8.60;99.90
7004;DHT22;3542;48.812;9.146;2022-12-24T04:00:11;8.60;99.90
7004;DHT22;3542;48.812;9.146;2022-12-24T04:02:37;8.60;99.90
7004;DHT22;3542;48.812;9.146;2022-12-24T04:05:02;8.60;99.90
7004;DHT22;3542;48.812;9.146;2022-12-24T04:07:28;8.60;99.90
7004;DHT22;3542;48.812;9.146;2022-12-24T04:09:54;8.60;99.90
7004;DHT22;3542;48.812;9.146;2022-12-24T04:12:19;8.60;99.90
7004;DHT22;3542;48.812;9.146;2022-12-24T04:14:45;8.70;99.90
7004;DHT22;3542;48.812;9.146;2022-12-24T04:17:10;8.70;99.90
7004;DHT22;3542;48.812;9.146;2022-12-24T04:19:36;8.70;99.90
7004;DHT22;3542;48.812;9.146;2022-12-24T04:22:01;8.70;99.90
7004;DHT22;3542;48.812;9.146;2022-12-24T04:24:27;8.80;99.90
7004;DHT22;3542;48.812;9.146;2022-12-24T04:26:52;8.80;99.90
7004;DHT22;3542;48.812;9.146;2022-12-24T04:29:18;8.80;99.90
7004;DHT22;3542;48.812;9.146;2022-12-24T04:31:43;8.90;99.90
7004;DHT22;3542;48.812;9.146;2022-12-24T04:34:09;8.90;99.90
7004;DHT22;3542;48.812;9.146;2022-12-24T04:36:34;8.90;99.90
7004;DHT22;3542;48.812;9.146;2022-12-24T04:39:00;9.00;99.90
7004;DHT22;3542;48.812;9.146;2022-12-24T04:41:25;9.00;99.90
7004;DHT22;3542;48.812;9.146;2022-12-24T04:43:52;9.00;99.90
7004;DHT22;3542;48.812;9.146;2022-12-24T04:46:22;9.00;99.90
7004;DHT22;3542;48.812;9.146;2022-12-24T04:48:49;9.00;99.90
7004;DHT22;3542;48.812;9.146;2022-12-24T04:51:16;9.00;99.90
7004;DHT22;3542;48.812;9.146;2022-12-24T04:53:42;9.00;99.90
7004;DHT22;3542;48.812;9.146;2022-12-24T04:56:19;9.00;99.90
7004;DHT22;3542;48.812;9.146;2022-12-24T04:58:45;9.00;99.90
7004;DHT22;3542;48.812;9.146;2022-12-24T05:01:17;9.00;99.90
7004;DHT22;3542;48.812;9.146;2022-12-24T05:03:43;9.00;99.90
7004;DHT22;3542;48.812;9.146;2022-12-24T05:06:11;8.90;99.90
7004;DHT22;3542;48.812;9.146;2022-12-24T05:08:37;8.90;99.90
7004;DHT22;3542;48.812;9.146;2022-12-24T05:11:03;8.90;99.90
7004;DHT22;3542;48.812;9.146;2022-12-24T05:13:29;8.90;99.90
7004;DHT22;3542;48.812;9.146;2022-12-24T05:15:55;8.80;99.90
7004;DHT22;3542;48.812;9.146;2022-12-24T05:18:21;8.80;99.90
7004;DHT22;3542;48.812;9.146;2022-12-24T05:20:48;8.70;99.90
7004;DHT22;3542;48.812;9.146;2022-12-24T05:23:22;8.80;99.90
7004;DHT22;3542;48.812;9.146;2022-12-24T05:26:34;8.80;99.90
7004;DHT22;3542;48.812;9.146;2022-12-24T05:29:01;8.70;99.90
7004;DHT22;3542;48.812;9.146;2022-12-24T05:31:29;8.70;99.90
7004;DHT22;3542;48.812;9.146;2022-12-24T05:33:55;8.80;99.90
7004;DHT22;3542;48.812;9.146;2022-12-24T05:36:21;8.80;99.90
7004;DHT22;3542;48.812;9.146;2022-12-24T05:38:47;8.80;99.90
7004;DHT22;3542;48.812;9.146;2022-12-24T05:41:13;8.90;99.90
7004;DHT22;3542;48.812;9.146;2022-12-24T05:43:39;8.90;99.90
7004;DHT22;3542;48.812;9.146;2022-12-24T05:46:07;8.90;99.90
7004;DHT22;3542;48.812;9.146;2022-12-24T05:48:33;8.90;99.90
7004;DHT22;3542;48.812;9.146;2022-12-24T05:51:02;8.90;99.90
7004;DHT22;3542;48.812;9.146;2022-12-24T05:53:28;9.00;99.90
7004;DHT22;3542;48.812;9.146;2022-12-24T05:55:53;9.00;99.90
7004;DHT22;3542;48.812;9.146;2022-12-24T05:58:19;9.00;99.90
7004;DHT22;3542;48.812;9.146;2022-12-24T06:00:44;9.00;99.90
7004;DHT22;3542;48.812;9.146;2022-12-24T06:03:09;9.00;99.90
7004;DHT22;3542;48.812;9.146;2022-12-24T06:05:35;9.00;99.90
7004;DHT22;3542;48.812;9.146;2022-12-24T06:08:01;8.90;99.90
7004;DHT22;3542;48.812;9.146;2022-12-24T06:10:26;8.90;99.90
7004;DHT22;3542;48.812;9.146;2022-12-24T06:12:52;8.90;99.90
7004;DHT22;3542;48.812;9.146;2022-12-24T06:15:17;8.90;99.90
7004;DHT22;3542;48.812;9.146;2022-12-24T06:17:43;8.90;99.90
7004;DHT22;3542;48.812;9.146;2022-12-24T06:20:09;8.90;99.90
7004;DHT22;3542;48.812;9.146;2022-12-24T06:22:34;8.90;99.90
7004;DHT22;3542;48.812;9.146;2022-12-24T06:25:00;8.90;99.90
7004;DHT22;3542;48.812;9.146;2022-12-24T06:27:25;8.90;99.90
7004;DHT22;3542;48.812;9.146;2022-12-24T06:29:51;8.90;99.90
7004;DHT22;3542;48.812;9.146;2022-12-24T06:32:16;8.90;99.90
7004;DHT22;3542;48.812;9.146;2022-12-24T06:34:42;9.00;99.90
7004;DHT22;3542;48.812;9.146;2022-12-24T06:37:07;9.00;99.90
7004;DHT22;3542;48.812;9.146;2022-12-24T06:39:33;9.00;99.90
7004;DHT22;3542;48.812;9.146;2022-12-24T06:41:58;9.00;99.90
7004;DHT22;3542;48.812;9.146;2022-12-24T06:44:24;8.90;99.90
7004;DHT22;3542;48.812;9.146;2022-12-24T06:46:50;8.90;99.90
7004;DHT22;3542;48.812;9.146;2022-12-24T06:49:16;8.80;99.90
7004;DHT22;3542;48.812;9.146;2022-12-24T06:51:41;8.90;99.90
7004;DHT22;3542;48.812;9.146;2022-12-24T06:54:07;8.80;99.90
7004;DHT22;3542;48.812;9.146;2022-12-24T06:56:32;8.80;99.90
7004;DHT22;3542;48.812;9.146;2022-12-24T06:58:58;8.80;99.90
7004;DHT22;3542;48.812;9.146;2022-12-24T07:01:24;8.70;99.90
7004;DHT22;3542;48.812;9.146;2022-12-24T07:03:50;8.70;99.90
7004;DHT22;3542;48.812;9.146;2022-12-24T07:06:24;8.70;99.90
7004;DHT22;3542;48.812;9.146;2022-12-24T07:08:50;8.60;99.90
7004;DHT22;3542;48.812;9.146;2022-12-24T07:11:16;8.60;99.90
7004;DHT22;3542;48.812;9.146;2022-12-24T07:13:41;8.60;99.90
7004;DHT22;3542;48.812;9.146;2022-12-24T07:16:07;8.60;99.90
7004;DHT22;3542;48.812;9.146;2022-12-24T07:18:33;8.60;99.90
7004;DHT22;3542;48.812;9.146;2022-12-24T07:20:58;8.60;99.90
7004;DHT22;3542;48.812;9.146;2022-12-24T07:23:24;8.60;99.90
7004;DHT22;3542;48.812;9.146;2022-12-24T07:25:50;8.60;99.90
7004;DHT22;3542;48.812;9.146;2022-12-24T07:28:15;8.50;99.90
7004;DHT22;3542;48.812;9.146;2022-12-24T07:30:41;8.50;99.90
7004;DHT22;3542;48.812;9.146;2022-12-24T07:33:07;8.50;99.90
7004;DHT22;3542;48.812;9.146;2022-12-24T07:35:32;8.50;99.90
7004;DHT22;3542;48.812;9.146;2022-12-24T07:37:58;8.40;99.90
7004;DHT22;3542;48.812;9.146;2022-12-24T07:40:23;8.40;99.90
7004;DHT22;3542;48.812;9.146;2022-12-24T07:42:49;8.40;99.90
7004;DHT22;3542;48.812;9.146;2022-12-24T07:45:14;8.40;99.90
7004;DHT22;3542;48.812;9.146;2022-12-24T07:47:40;8.40;99.90
7004;DHT22;3542;48.812;9.146;2022-12-24T07:50:06;8.30;99.90
7004;DHT22;3542;48.812;9.146;2022-12-24T07:52:32;8.30;99.90
7004;DHT22;3542;48.812;9.146;2022-12-24T07:54:57;8.20;99.90
7004;DHT22;3542;48.812;9.146;2022-12-24T07:57:23;8.20;99.90
7004;DHT22;3542;48.812;9.146;2022-12-24T07:59:48;8.20;99.90
7004;DHT22;3542;48.812;9.146;2022-12-24T08:02:14;8.20;99.90
7004;DHT22;3542;48.812;9.146;2022-12-24T08:04:39;8.20;99.90
7004;DHT22;3542;48.812;9.146;2022-12-24T08:07:06;8.30;99.90
7004;DHT22;3542;48.812;9.146;2022-12-24T08:09:33;8.30;99.90
7004;DHT22;3542;48.812;9.146;2022-12-24T08:11:59;8.30;99.90
7004;DHT22;3542;48.812;9.146;2022-12-24T08:14:27;8.30;99.90
7004;DHT22;3542;48.812;9.146;2022-12-24T08:16:52;8.40;99.90
7004;DHT22;3542;48.812;9.146;2022-12-24T08:19:18;8.40;99.90
7004;DHT22;3542;48.812;9.146;2022-12-24T08:21:43;8.50;99.90
7004;DHT22;3542;48.812;9.146;2022-12-24T08:24:09;8.60;99.90
7004;DHT22;3542;48.812;9.146;2022-12-24T08:26:34;8.60;99.90
7004;DHT22;3542;48.812;9.146;2022-12-24T08:29:01;8.60;99.90
7004;DHT22;3542;48.812;9.146;2022-12-24T08:31:26;8.70;99.90
7004;DHT22;3542;48.812;9.146;2022-12-24T08:33:52;8.80;99.90
7004;DHT22;3542;48.812;9.146;2022-12-24T08:36:17;8.80;99.90
7004;DHT22;3542;48.812;9.146;2022-12-24T08:38:43;8.90;99.90
7004;DHT22;3542;48.812;9.146;2022-12-24T08:41:08;8.90;99.90
7004;DHT22;3542;48.812;9.146;2022-12-24T08:43:34;9.00;99.90
7004;DHT22;3542;48.812;9.146;2022-12-24T08:46:04;9.00;99.90
7004;DHT22;3542;48.812;9.146;2022-12-24T08:48:31;9.00;99.90
7004;DHT22;3542;48.812;9.146;2022-12-24T08:50:56;9.00;99.90
7004;DHT22;3542;48.812;9.146;2022-12-24T08:53:22;9.00;99.90
7004;DHT22;3542;48.812;9.146;2022-12-24T08:55:47;9.00;99.90
7004;DHT22;3542;48.812;9.146;2022-12-24T08:58:13;9.00;99.90
7004;DHT22;3542;48.812;9.146;2022-12-24T09:00:39;8.90;99.90
7004;DHT22;3542;48.812;9.146;2022-12-24T09:03:04;8.90;99.90
7004;DHT22;3542;48.812;9.146;2022-12-24T09:05:30;8.90;99.90
7004;DHT22;3542;48.812;9.146;2022-12-24T09:07:55;9.00;99.90
7004;DHT22;3542;48.812;9.146;2022-12-24T09:10:21;9.10;99.90
7004;DHT22;3542;48.812;9.146;2022-12-24T09:12:47;9.10;99.90
7004;DHT22;3542;48.812;9.146;2022-12-24T09:15:12;9.20;99.90
7004;DHT22;3542;48.812;9.146;2022-12-24T09:17:38;9.30;99.90
7004;DHT22;3542;48.812;9.146;2022-12-24T09:20:05;9.50;99.90
7004;DHT22;3542;48.812;9.146;2022-12-24T09:22:33;9.70;99.90
7004;DHT22;3542;48.812;9.146;2022-12-24T09:24:59;9.90;99.90
7004;DHT22;3542;48.812;9.146;2022-12-24T09:27:24;10.10;99.90
7004;DHT22;3542;48.812;9.146;2022-12-24T09:29:50;10.50;99.90
7004;DHT22;3542;48.812;9.146;2022-12-24T09:32:15;10.70;99.90
7004;DHT22;3542;48.812;9.146;2022-12-24T09:34:41;10.90;99.90
7004;DHT22;3542;48.812;9.146;2022-12-24T09:37:06;11.00;99.90
7004;DHT22;3542;48.812;9.146;2022-12-24T09:39:32;11.20;99.90
7004;DHT22;3542;48.812;9.146;2022-12-24T09:47:36;12.20;99.90
7004;DHT22;3542;48.812;9.146;2022-12-24T09:50:19;12.70;99.90
7004;DHT22;3542;48.812;9.146;2022-12-24T09:52:46;13.00;99.90
7004;DHT22;3542;48.812;9.146;2022-12-24T09:55:16;13.20;99.90
7004;DHT22;3542;48.812;9.146;2022-12-24T09:57:45;13.70;99.90
7004;DHT22;3542;48.812;9.146;2022-12-24T10:00:20;14.30;99.90
7004;DHT22;3542;48.812;9.146;2022-12-24T10:02:46;14.60;99.90
7004;DHT22;3542;48.812;9.146;2022-12-24T10:05:26;15.10;99.90
7004;DHT22;3542;48.812;9.146;2022-12-24T10:10:52;14.90;99.90
7004;DHT22;3542;48.812;9.146;2022-12-24T10:21:14;14.60;99.90
7004;DHT22;3542;48.812;9.146;2022-12-24T10:23:46;14.40;99.90
7004;DHT22;3542;48.812;9.146;2022-12-24T10:26:26;14.00;99.90
7004;DHT22;3542;48.812;9.146;2022-12-24T10:28:58;13.60;99.90
7004;DHT22;3542;48.812;9.146;2022-12-24T10:31:28;13.20;99.90
7004;DHT22;3542;48.812;9.146;2022-12-24T10:34:00;13.00;99.90
7004;DHT22;3542;48.812;9.146;2022-12-24T10:36:28;12.70;99.90
7004;DHT22;3542;48.812;9.146;2022-12-24T10:38:54;12.50;99.90
7004;DHT22;3542;48.812;9.146;2022-12-24T10:41:20;12.40;99.90
7004;DHT22;3542;48.812;9.146;2022-12-24T10:43:46;12.20;99.90
7004;DHT22;3542;48.812;9.146;2022-12-24T10:49:00;12.20;99.90
7004;DHT22;3542;48.812;9.146;2022-12-24T10:51:52;12.30;99.90
7004;DHT22;3542;48.812;9.146;2022-12-24T10:54:21;12.30;99.90
7004;DHT22;3542;48.812;9.146;2022-12-24T10:56:50;12.20;99.90
7004;DHT22;3542;48.812;9.146;2022-12-24T11:02:30;12.00;99.90
7004;DHT22;3542;48.812;9.146;2022-12-24T11:04:57;12.00;99.90
7004;DHT22;3542;48.812;9.146;2022-12-24T11:07:27;12.00;99.90
7004;DHT22;3542;48.812;9.146;2022-12-24T11:12:27;12.10;99.90
7004;DHT22;3542;48.812;9.146;2022-12-24T11:15:05;12.10;99.90
7004;DHT22;3542;48.812;9.146;2022-12-24T11:17:32;12.10;99.90
7004;DHT22;3542;48.812;9.146;2022-12-24T11:19:58;12.00;99.90
7004;DHT22;3542;48.812;9.146;2022-12-24T11:22:29;12.00;99.90
7004;DHT22;3542;48.812;9.146;2022-12-24T11:25:25;11.90;99.90
7004;DHT22;3542;48.812;9.146;2022-12-24T11:27:49;11.80;99.90
7004;DHT22;3542;48.812;9.146;2022-12-24T11:32:49;11.80;99.90
7004;DHT22;3542;48.812;9.146;2022-12-24T11:35:18;11.70;99.90
7004;DHT22;3542;48.812;9.146;2022-12-24T11:37:47;11.70;99.90
7004;DHT22;3542;48.812;9.146;2022-12-24T11:40:21;11.70;99.90
7004;DHT22;3542;48.812;9.146;2022-12-24T11:42:48;11.70;99.90
7004;DHT22;3542;48.812;9.146;2022-12-24T11:45:23;11.70;99.90
7004;DHT22;3542;48.812;9.146;2022-12-24T11:47:50;11.70;99.90
7004;DHT22;3542;48.812;9.146;2022-12-24T11:50:30;11.70;99.90
7004;DHT22;3542;48.812;9.146;2022-12-24T12:00:46;11.80;99.90
7004;DHT22;3542;48.812;9.146;2022-12-24T12:03:33;11.80;99.90
7004;DHT22;3542;48.812;9.146;2022-12-24T12:06:02;11.90;99.90
7004;DHT22;3542;48.812;9.146;2022-12-24T12:08:29;11.90;99.90
7004;DHT22;3542;48.812;9.146;2022-12-24T12:10:57;11.90;99.90
7004;DHT22;3542;48.812;9.146;2022-12-24T12:13:29;11.90;99.90
7004;DHT22;3542;48.812;9.146;2022-12-24T12:18:39;11.90;99.90
7004;DHT22;3542;48.812;9.146;2022-12-24T12:21:12;11.90;99.90
7004;DHT22;3542;48.812;9.146;2022-12-24T12:23:48;11.90;99.90
7004;DHT22;3542;48.812;9.146;2022-12-24T12:26:22;11.90;99.90
7004;DHT22;3542;48.812;9.146;2022-12-24T12:34:33;12.00;99.90
7004;DHT22;3542;48.812;9.146;2022-12-24T12:37:17;12.00;99.90
7004;DHT22;3542;48.812;9.146;2022-12-24T12:39:44;12.00;99.90
7004;DHT22;3542;48.812;9.146;2022-12-24T12:42:26;11.90;99.90
7004;DHT22;3542;48.812;9.146;2022-12-24T12:47:59;11.90;99.90
7004;DHT22;3542;48.812;9.146;2022-12-24T12:51:10;11.80;99.90
7004;DHT22;3542;48.812;9.146;2022-12-24T12:53:43;11.80;99.90
7004;DHT22;3542;48.812;9.146;2022-12-24T12:56:30;11.80;99.90
7004;DHT22;3542;48.812;9.146;2022-12-24T12:59:15;11.90;99.90
7004;DHT22;3542;48.812;9.146;2022-12-24T13:02:08;11.90;99.90
7004;DHT22;3542;48.812;9.146;2022-12-24T13:07:50;12.00;99.90
7004;DHT22;3542;48.812;9.146;2022-12-24T13:21:21;12.70;99.90
7004;DHT22;3542;48.812;9.146;2022-12-24T13:23:47;12.80;99.90
7004;DHT22;3542;48.812;9.146;2022-12-24T13:26:14;12.80;99.90
7004;DHT22;3542;48.812;9.146;2022-12-24T13:28:41;12.80;99.90
7004;DHT22;3542;48.812;9.146;2022-12-24T13:36:12;12.60;99.90
7004;DHT22;3542;48.812;9.146;2022-12-24T13:38:47;12.50;99.90
7004;DHT22;3542;48.812;9.146;2022-12-24T13:44:18;12.40;99.90
7004;DHT22;3542;48.812;9.146;2022-12-24T13:47:00;12.40;99.90
7004;DHT22;3542;48.812;9.146;2022-12-24T13:49:28;12.30;99.90
7004;DHT22;3542;48.812;9.146;2022-12-24T13:54:45;12.20;99.90
7004;DHT22;3542;48.812;9.146;2022-12-24T13:57:44;12.10;99.90
7004;DHT22;3542;48.812;9.146;2022-12-24T14:05:46;12.00;99.90
7004;DHT22;3542;48.812;9.146;2022-12-24T14:11:04;12.00;99.90
7004;DHT22;3542;48.812;9.146;2022-12-24T14:13:51;12.00;99.90
7004;DHT22;3542;48.812;9.146;2022-12-24T14:19:24;11.90;99.90
7004;DHT22;3542;48.812;9.146;2022-12-24T14:21:59;11.90;99.90
7004;DHT22;3542;48.812;9.146;2022-12-24T14:24:38;11.90;99.90
7004;DHT22;3542;48.812;9.146;2022-12-24T14:27:32;12.00;99.90
7004;DHT22;3542;48.812;9.146;2022-12-24T14:30:08;12.00;99.90
7004;DHT22;3542;48.812;9.146;2022-12-24T14:32:40;12.00;99.90
7004;DHT22;3542;48.812;9.146;2022-12-24T14:35:16;12.00;99.90
7004;DHT22;3542;48.812;9.146;2022-12-24T14:38:07;11.90;99.90
7004;DHT22;3542;48.812;9.146;2022-12-24T14:46:30;11.80;99.90
7004;DHT22;3542;48.812;9.146;2022-12-24T14:49:06;11.70;99.90
7004;DHT22;3542;48.812;9.146;2022-12-24T14:54:25;11.60;99.90
7004;DHT22;3542;48.812;9.146;2022-12-24T14:59:50;11.40;99.90
7004;DHT22;3542;48.812;9.146;2022-12-24T15:07:31;11.10;99.90
7004;DHT22;3542;48.812;9.146;2022-12-24T15:09:57;11.00;99.90
7004;DHT22;3542;48.812;9.146;2022-12-24T15:12:23;10.90;99.90
7004;DHT22;3542;48.812;9.146;2022-12-24T15:14:49;10.80;99.90
7004;DHT22;3542;48.812;9.146;2022-12-24T15:17:15;10.70;99.90
7004;DHT22;3542;48.812;9.146;2022-12-24T15:19:42;10.70;99.90
7004;DHT22;3542;48.812;9.146;2022-12-24T15:22:15;10.60;99.90
7004;DHT22;3542;48.812;9.146;2022-12-24T15:24:45;10.60;99.90
7004;DHT22;3542;48.812;9.146;2022-12-24T15:27:21;10.50;99.90
7004;DHT22;3542;48.812;9.146;2022-12-24T15:29:49;10.50;99.90
7004;DHT22;3542;48.812;9.146;2022-12-24T15:32:17;10.50;99.90
7004;DHT22;3542;48.812;9.146;2022-12-24T15:34:48;10.40;99.90
7004;DHT22;3542;48.812;9.146;2022-12-24T15:37:23;10.30;99.90
7004;DHT22;3542;48.812;9.146;2022-12-24T15:39:57;10.30;99.90
7004;DHT22;3542;48.812;9.146;2022-12-24T15:42:26;10.20;99.90
7004;DHT22;3542;48.812;9.146;2022-12-24T15:45:00;10.20;99.90
7004;DHT22;3542;48.812;9.146;2022-12-24T15:47:35;10.10;99.90
7004;DHT22;3542;48.812;9.146;2022-12-24T15:52:43;10.00;99.90
7004;DHT22;3542;48.812;9.146;2022-12-24T15:55:36;10.00;99.90
7004;DHT22;3542;48.812;9.146;2022-12-24T15:58:21;10.00;99.90
7004;DHT22;3542;48.812;9.146;2022-12-24T16:06:16;9.80;99.90
7004;DHT22;3542;48.812;9.146;2022-12-24T16:08:43;9.70;99.90
7004;DHT22;3542;48.812;9.146;2022-12-24T16:13:43;9.70;99.90
7004;DHT22;3542;48.812;9.146;2022-12-24T16:16:18;9.70;99.90
7004;DHT22;3542;48.812;9.146;2022-12-24T16:18:57;9.60;99.90
7004;DHT22;3542;48.812;9.146;2022-12-24T16:21:36;9.60;99.90
7004;DHT22;3542;48.812;9.146;2022-12-24T16:24:14;9.50;99.90
7004;DHT22;3542;48.812;9.146;2022-12-24T16:26:40;9.50;99.90
7004;DHT22;3542;48.812;9.146;2022-12-24T16:29:06;9.50;99.90
7004;DHT22;3542;48.812;9.146;2022-12-24T16:31:35;9.40;99.90
7004;DHT22;3542;48.812;9.146;2022-12-24T16:34:02;9.50;99.90
7004;DHT22;3542;48.812;9.146;2022-12-24T16:36:29;9.40;99.90
7004;DHT22;3542;48.812;9.146;2022-12-24T16:38:56;9.30;99.90
7004;DHT22;3542;48.812;9.146;2022-12-24T16:41:40;9.30;99.90
7004;DHT22;3542;48.812;9.146;2022-12-24T16:44:24;9.20;99.90
7004;DHT22;3542;48.812;9.146;2022-12-24T16:46:51;9.20;99.90
7004;DHT22;3542;48.812;9.146;2022-12-24T16:49:19;9.20;99.90
7004;DHT22;3542;48.812;9.146;2022-12-24T16:51:46;9.20;99.90
7004;DHT22;3542;48.812;9.146;2022-12-24T16:54:12;9.20;99.90
7004;DHT22;3542;48.812;9.146;2022-12-24T16:56:39;9.20;99.90
7004;DHT22;3542;48.812;9.146;2022-12-24T16:59:05;9.10;99.90
7004;DHT22;3542;48.812;9.146;2022-12-24T17:01:30;9.10;99.90
7004;DHT22;3542;48.812;9.146;2022-12-24T17:03:56;9.10;99.90
7004;DHT22;3542;48.812;9.146;2022-12-24T17:06:21;9.10;99.90
7004;DHT22;3542;48.812;9.146;2022-12-24T17:08:47;9.10;99.90
7004;DHT22;3542;48.812;9.146;2022-12-24T17:11:13;9.10;99.90
7004;DHT22;3542;48.812;9.146;2022-12-24T17:13:39;9.20;99.90
7004;DHT22;3542;48.812;9.146;2022-12-24T17:16:04;9.20;99.90
7004;DHT22;3542;48.812;9.146;2022-12-24T17:18:30;9.20;99.90
7004;DHT22;3542;48.812;9.146;2022-12-24T17:21:00;9.20;99.90
7004;DHT22;3542;48.812;9.146;2022-12-24T17:23:26;9.10;99.90
7004;DHT22;3542;48.812;9.146;2022-12-24T17:25:51;9.10;99.90
7004;DHT22;3542;48.812;9.146;2022-12-24T17:28:17;9.10;99.90
7004;DHT22;3542;48.812;9.146;2022-12-24T17:30:42;9.10;99.90
7004;DHT22;3542;48.812;9.146;2022-12-24T17:33:08;9.10;99.90
7004;DHT22;3542;48.812;9.146;2022-12-24T17:35:38;9.10;99.90
7004;DHT22;3542;48.812;9.146;2022-12-24T17:38:04;9.10;99.90
7004;DHT22;3542;48.812;9.146;2022-12-24T17:40:29;9.10;99.90
7004;DHT22;3542;48.812;9.146;2022-12-24T17:42:55;9.10;99.90
7004;DHT22;3542;48.812;9.146;2022-12-24T17:45:20;9.10;99.90
7004;DHT22;3542;48.812;9.146;2022-12-24T17:47:46;9.10;99.90
7004;DHT22;3542;48.812;9.146;2022-12-24T17:50:11;9.10;99.90
7004;DHT22;3542;48.812;9.146;2022-12-24T17:52:37;9.10;99.90
7004;DHT22;3542;48.812;9.146;2022-12-24T17:55:03;9.10;99.90
7004;DHT22;3542;48.812;9.146;2022-12-24T17:57:28;9.10;99.90
7004;DHT22;3542;48.812;9.146;2022-12-24T17:59:54;9.10;99.90
7004;DHT22;3542;48.812;9.146;2022-12-24T18:02:21;9.10;99.90
7004;DHT22;3542;48.812;9.146;2022-12-24T18:04:47;9.10;99.90
7004;DHT22;3542;48.812;9.146;2022-12-24T18:07:13;9.10;99.90
7004;DHT22;3542;48.812;9.146;2022-12-24T18:09:38;9.10;99.90
7004;DHT22;3542;48.812;9.146;2022-12-24T18:12:04;9.10;99.90
7004;DHT22;3542;48.812;9.146;2022-12-24T18:14:30;9.10;99.90
7004;DHT22;3542;48.812;9.146;2022-12-24T18:16:55;9.00;99.90
7004;DHT22;3542;48.812;9.146;2022-12-24T18:19:21;9.10;99.90
7004;DHT22;3542;48.812;9.146;2022-12-24T18:21:46;9.10;99.90
7004;DHT22;3542;48.812;9.146;2022-12-24T18:24:12;9.10;99.90
7004;DHT22;3542;48.812;9.146;2022-12-24T18:26:38;9.20;99.90
7004;DHT22;3542;48.812;9.146;2022-12-24T18:29:04;9.20;99.90
7004;DHT22;3542;48.812;9.146;2022-12-24T18:31:30;9.20;99.90
7004;DHT22;3542;48.812;9.146;2022-12-24T18:33:57;9.30;99.90
7004;DHT22;3542;48.812;9.146;2022-12-24T18:36:23;9.30;99.90
7004;DHT22;3542;48.812;9.146;2022-12-24T18:38:49;9.40;99.90
7004;DHT22;3542;48.812;9.146;2022-12-24T18:41:17;9.50;99.90
7004;DHT22;3542;48.812;9.146;2022-12-24T18:43:43;9.70;99.90
7004;DHT22;3542;48.812;9.146;2022-12-24T18:46:10;9.80;99.90
7004;DHT22;3542;48.812;9.146;2022-12-24T18:48:36;9.90;99.90
7004;DHT22;3542;48.812;9.146;2022-12-24T18:51:03;10.00;99.90
7004;DHT22;3542;48.812;9.146;2022-12-24T18:53:29;10.00;99.90
7004;DHT22;3542;48.812;9.146;2022-12-24T18:55:54;10.10;99.90
7004;DHT22;3542;48.812;9.146;2022-12-24T18:58:20;10.10;99.90
7004;DHT22;3542;48.812;9.146;2022-12-24T19:00:46;10.20;99.90
7004;DHT22;3542;48.812;9.146;2022-12-24T19:03:11;10.10;99.90
7004;DHT22;3542;48.812;9.146;2022-12-24T19:05:37;10.20;99.90
7004;DHT22;3542;48.812;9.146;2022-12-24T19:08:02;10.20;99.90
7004;DHT22;3542;48.812;9.146;2022-12-24T19:10:28;10.20;99.90
7004;DHT22;3542;48.812;9.146;2022-12-24T19:12:53;10.20;99.90
7004;DHT22;3542;48.812;9.146;2022-12-24T19:15:19;10.20;99.90
7004;DHT22;3542;48.812;9.146;2022-12-24T19:17:45;10.20;99.90
7004;DHT22;3542;48.812;9.146;2022-12-24T19:20:11;10.20;99.90
7004;DHT22;3542;48.812;9.146;2022-12-24T19:22:36;10.20;99.90
7004;DHT22;3542;48.812;9.146;2022-12-24T19:25:02;10.30;99.90
7004;DHT22;3542;48.812;9.146;2022-12-24T19:27:28;10.30;99.90
7004;DHT22;3542;48.812;9.146;2022-12-24T19:29:53;10.30;99.90
7004;DHT22;3542;48.812;9.146;2022-12-24T19:32:19;10.30;99.90
7004;DHT22;3542;48.812;9.146;2022-12-24T19:34:44;10.30;99.90
7004;DHT22;3542;48.812;9.146;2022-12-24T19:37:10;10.30;99.90
7004;DHT22;3542;48.812;9.146;2022-12-24T19:39:35;10.30;99.90